sensor_id;sensor_type;location;lat;lon;timestamp;pressure;altitude;pressure_sealevel;temperature;humidity
64521;BME280;50896;46.714;17.322;2023-06-22T12:12:53;100522.84;;;30.99;75.64
64521;BME280;50896;46.714;17.322;2023-06-22T12:15:20;100508.81;;;31.20;75.16
64521;BME280;50896;46.714;17.322;2023-06-22T12:17:47;100512.81;;;31.28;73.08
64521;BME280;50896;46.714;17.322;2023-06-22T12:20:15;100506.22;;;31.29;70.95
64521;BME280;50896;46.714;17.322;2023-06-22T12:22:43;100505.91;;;31.30;71.22
64521;BME280;50896;46.714;17.322;2023-06-22T12:25:10;100496.78;;;31.16;68.72
64521;BME280;50896;46.714;17.322;2023-06-22T12:27:37;100491.47;;;31.06;70.25
64521;BME280;50896;46.714;17.322;2023-06-22T12:30:04;100501.19;;;30.98;69.48
64521;BME280;50896;46.714;17.322;2023-06-22T12:32:31;100493.72;;;31.04;72.73
64521;BME280;50896;46.714;17.322;2023-06-22T12:34:58;100492.00;;;31.08;72.63
64521;BME280;50896;46.714;17.322;2023-06-22T12:37:26;100493.13;;;31.07;73.12
64521;BME280;50896;46.714;17.322;2023-06-22T12:39:54;100489.28;;;31.08;72.04
64521;BME280;50896;46.714;17.322;2023-06-22T12:42:21;100497.56;;;31.02;71.80
64521;BME280;50896;46.714;17.322;2023-06-22T12:44:48;100488.28;;;30.98;73.16
64521;BME280;50896;46.714;17.322;2023-06-22T12:47:15;100476.03;;;30.91;71.15
64521;BME280;50896;46.714;17.322;2023-06-22T12:49:41;100476.69;;;30.82;71.16
64521;BME280;50896;46.714;17.322;2023-06-22T12:52:09;100479.53;;;30.77;71.42
64521;BME280;50896;46.714;17.322;2023-06-22T12:54:37;100472.41;;;30.76;69.00
64521;BME280;50896;46.714;17.322;2023-06-22T12:57:20;100473.59;;;30.70;71.03
64521;BME280;50896;46.714;17.322;2023-06-22T12:59:47;100473.59;;;30.70;73.25
64521;BME280;50896;46.714;17.322;2023-06-22T13:02:14;100475.00;;;30.67;73.71
64521;BME280;50896;46.714;17.322;2023-06-22T13:04:40;100477.44;;;30.69;74.06
64521;BME280;50896;46.714;17.322;2023-06-22T13:07:08;100476.34;;;30.70;74.58
64521;BME280;50896;46.714;17.322;2023-06-22T13:09:48;100476.63;;;30.68;73.79
64521;BME280;50896;46.714;17.322;2023-06-22T13:12:19;100477.22;;;30.65;72.13
64521;BME280;50896;46.714;17.322;2023-06-22T13:14:47;100467.13;;;30.61;73.96
64521;BME280;50896;46.714;17.322;2023-06-22T13:17:15;100469.06;;;30.60;72.69
64521;BME280;50896;46.714;17.322;2023-06-22T13:19:42;100456.47;;;30.59;72.91
64521;BME280;50896;46.714;17.322;2023-06-22T13:22:31;100454.53;;;30.60;72.82
64521;BME280;50896;46.714;17.322;2023-06-22T13:24:59;100454.22;;;30.61;72.76
64521;BME280;50896;46.714;17.322;2023-06-22T13:27:26;100447.41;;;30.59;71.31
64521;BME280;50896;46.714;17.322;2023-06-22T13:29:53;100438.66;;;30.57;71.12
64521;BME280;50896;46.714;17.322;2023-06-22T13:32:20;100446.16;;;30.51;72.79
64521;BME280;50896;46.714;17.322;2023-06-22T13:34:47;100448.91;;;30.51;73.00
64521;BME280;50896;46.714;17.322;2023-06-22T13:37:13;100446.16;;;30.51;72.26
64521;BME280;50896;46.714;17.322;2023-06-22T13:39:41;100444.56;;;30.45;72.63
64521;BME280;50896;46.714;17.322;2023-06-22T13:42:08;100448.66;;;30.47;72.45
64521;BME280;50896;46.714;17.322;2023-06-22T13:44:35;100437.94;;;30.51;72.58
64521;BME280;50896;46.714;17.322;2023-06-22T13:47:02;100445.56;;;30.54;72.57
64521;BME280;50896;46.714;17.322;2023-06-22T13:49:29;100440.59;;;30.56;72.87
64521;BME280;50896;46.714;17.322;2023-06-22T13:51:56;100440.59;;;30.56;73.71
64521;BME280;50896;46.714;17.322;2023-06-22T13:54:23;100441.13;;;30.58;73.75
64521;BME280;50896;46.714;17.322;2023-06-22T13:56:56;100432.28;;;30.61;72.69
64521;BME280;50896;46.714;17.322;2023-06-22T13:59:23;100433.13;;;30.62;72.50
64521;BME280;50896;46.714;17.322;2023-06-22T14:01:50;100420.50;;;30.61;72.80
64521;BME280;50896;46.714;17.322;2023-06-22T14:04:17;100429.03;;;30.59;73.65
64521;BME280;50896;46.714;17.322;2023-06-22T14:06:44;100427.09;;;30.60;74.10
64521;BME280;50896;46.714;17.322;2023-06-22T14:09:10;100423.91;;;30.53;75.37
64521;BME280;50896;46.714;17.322;2023-06-22T14:11:37;100417.09;;;30.50;74.11
64521;BME280;50896;46.714;17.322;2023-06-22T14:14:04;100425.03;;;30.51;74.25
64521;BME280;50896;46.714;17.322;2023-06-22T14:16:31;100421.03;;;30.44;74.94
64521;BME280;50896;46.714;17.322;2023-06-22T14:18:58;100419.34;;;30.43;74.25
64521;BME280;50896;46.714;17.322;2023-06-22T14:21:25;100416.59;;;30.48;73.13
64521;BME280;50896;46.714;17.322;2023-06-22T14:23:53;100415.38;;;30.54;72.89
64521;BME280;50896;46.714;17.322;2023-06-22T14:26:19;100402.41;;;30.60;72.92
64521;BME280;50896;46.714;17.322;2023-06-22T14:28:47;100402.84;;;30.67;73.33
64521;BME280;50896;46.714;17.322;2023-06-22T14:31:18;100402.53;;;30.68;69.87
64521;BME280;50896;46.714;17.322;2023-06-22T14:33:46;100400.56;;;30.74;69.73
64521;BME280;50896;46.714;17.322;2023-06-22T14:36:14;100395.28;;;30.78;69.90
64521;BME280;50896;46.714;17.322;2023-06-22T14:38:42;100397.94;;;30.83;69.28
64521;BME280;50896;46.714;17.322;2023-06-22T14:41:09;100400.69;;;30.83;70.68
64521;BME280;50896;46.714;17.322;2023-06-22T14:43:45;100399.28;;;30.85;68.60
64521;BME280;50896;46.714;17.322;2023-06-22T14:46:14;100400.09;;;30.86;67.95
64521;BME280;50896;46.714;17.322;2023-06-22T14:48:42;100399.47;;;30.89;68.67
64521;BME280;50896;46.714;17.322;2023-06-22T14:51:09;100398.97;;;30.87;68.07
64521;BME280;50896;46.714;17.322;2023-06-22T14:53:42;100391.06;;;30.85;68.70
64521;BME280;50896;46.714;17.322;2023-06-22T14:56:09;100394.91;;;30.84;68.55
64521;BME280;50896;46.714;17.322;2023-06-22T14:58:36;100402.84;;;30.86;67.49
64521;BME280;50896;46.714;17.322;2023-06-22T15:01:03;100399.06;;;30.82;67.58
64521;BME280;50896;46.714;17.322;2023-06-22T15:03:31;100395.50;;;30.81;68.36
64521;BME280;50896;46.714;17.322;2023-06-22T15:06:00;100393.56;;;30.82;68.15
64521;BME280;50896;46.714;17.322;2023-06-22T15:08:27;100388.88;;;30.82;69.00
64521;BME280;50896;46.714;17.322;2023-06-22T15:10:54;100395.28;;;30.78;70.48
64521;BME280;50896;46.714;17.322;2023-06-22T15:13:21;100386.00;;;30.74;71.18
64521;BME280;50896;46.714;17.322;2023-06-22T15:15:50;100385.50;;;30.72;72.63
64521;BME280;50896;46.714;17.322;2023-06-22T15:18:17;100377.84;;;30.68;71.84
64521;BME280;50896;46.714;17.322;2023-06-22T15:20:43;100376.25;;;30.67;71.67
64521;BME280;50896;46.714;17.322;2023-06-22T15:23:12;100381.75;;;30.67;72.44
64521;BME280;50896;46.714;17.322;2023-06-22T15:25:39;100378.16;;;30.67;71.51
64521;BME280;50896;46.714;17.322;2023-06-22T15:28:07;100368.03;;;30.67;71.33
64521;BME280;50896;46.714;17.322;2023-06-22T15:30:34;100371.25;;;30.70;69.99
64521;BME280;50896;46.714;17.322;2023-06-22T15:33:00;100376.69;;;30.75;69.93
64521;BME280;50896;46.714;17.322;2023-06-22T15:35:28;100377.28;;;30.72;72.17
64521;BME280;50896;46.714;17.322;2023-06-22T15:37:58;100381.19;;;30.65;70.71
64521;BME280;50896;46.714;17.322;2023-06-22T15:40:26;100375.22;;;30.63;71.19
64521;BME280;50896;46.714;17.322;2023-06-22T15:42:53;100371.13;;;30.61;72.12
64521;BME280;50896;46.714;17.322;2023-06-22T15:45:20;100372.78;;;30.62;73.00
64521;BME280;50896;46.714;17.322;2023-06-22T15:47:46;100358.75;;;30.63;72.41
64521;BME280;50896;46.714;17.322;2023-06-22T15:50:13;100360.91;;;30.66;70.87
64521;BME280;50896;46.714;17.322;2023-06-22T15:52:41;100365.59;;;30.66;73.41
64521;BME280;50896;46.714;17.322;2023-06-22T15:55:08;100364.97;;;30.69;73.35
64521;BME280;50896;46.714;17.322;2023-06-22T15:57:36;100357.03;;;30.67;74.55
64521;BME280;50896;46.714;17.322;2023-06-22T16:00:03;100358.75;;;30.63;76.14
64521;BME280;50896;46.714;17.322;2023-06-22T16:02:32;100359.56;;;30.64;74.66
64521;BME280;50896;46.714;17.322;2023-06-22T16:04:59;100352.22;;;30.59;75.35
64521;BME280;50896;46.714;17.322;2023-06-22T16:07:27;100350.28;;;30.60;76.26
64521;BME280;50896;46.714;17.322;2023-06-22T16:09:54;100345.66;;;30.60;76.48
64521;BME280;50896;46.714;17.322;2023-06-22T16:12:21;100349.00;;;30.71;74.99
64521;BME280;50896;46.714;17.322;2023-06-22T16:14:49;100348.13;;;30.76;72.81
64521;BME280;50896;46.714;17.322;2023-06-22T16:17:16;100342.72;;;30.71;73.54
64521;BME280;50896;46.714;17.322;2023-06-22T16:19:43;100344.88;;;30.74;73.60
64521;BME280;50896;46.714;17.322;2023-06-22T16:22:10;100338.56;;;30.73;74.00
64521;BME280;50896;46.714;17.322;2023-06-22T16:24:37;100331.00;;;30.84;73.51
64521;BME280;50896;46.714;17.322;2023-06-22T16:27:04;100344.53;;;30.94;73.20
64521;BME280;50896;46.714;17.322;2023-06-22T16:29:31;100342.97;;;31.21;71.89
64521;BME280;50896;46.714;17.322;2023-06-22T16:31:58;100338.31;;;31.35;71.50
64521;BME280;50896;46.714;17.322;2023-06-22T16:34:25;100335.56;;;31.35;71.70
64521;BME280;50896;46.714;17.322;2023-06-22T16:36:51;100330.28;;;31.25;72.75
64521;BME280;50896;46.714;17.322;2023-06-22T16:39:19;100329.34;;;31.16;73.80
64521;BME280;50896;46.714;17.322;2023-06-22T16:41:45;100322.31;;;31.10;73.69
64521;BME280;50896;46.714;17.322;2023-06-22T16:44:12;100316.91;;;31.05;74.71
64521;BME280;50896;46.714;17.322;2023-06-22T16:46:39;100317.59;;;30.96;75.12
64521;BME280;50896;46.714;17.322;2023-06-22T16:49:07;100315.97;;;30.95;76.26
64521;BME280;50896;46.714;17.322;2023-06-22T16:51:34;100315.53;;;30.88;76.53
64521;BME280;50896;46.714;17.322;2023-06-22T16:54:01;100315.34;;;30.84;77.63
64521;BME280;50896;46.714;17.322;2023-06-22T16:56:28;100306.88;;;30.81;77.09
64521;BME280;50896;46.714;17.322;2023-06-22T16:58:57;100306.69;;;30.77;79.44
64521;BME280;50896;46.714;17.322;2023-06-22T17:01:33;100302.19;;;30.67;82.13
64521;BME280;50896;46.714;17.322;2023-06-22T17:04:03;100306.09;;;30.61;82.81
64521;BME280;50896;46.714;17.322;2023-06-22T17:06:31;100301.22;;;30.58;83.82
64521;BME280;50896;46.714;17.322;2023-06-22T17:09:03;100300.72;;;30.56;83.56
64521;BME280;50896;46.714;17.322;2023-06-22T17:11:31;100296.03;;;30.57;81.22
64521;BME280;50896;46.714;17.322;2023-06-22T17:13:58;100301.03;;;30.55;83.26
64521;BME280;50896;46.714;17.322;2023-06-22T17:16:25;100304.34;;;30.51;83.39
64521;BME280;50896;46.714;17.322;2023-06-22T17:18:55;100292.88;;;30.49;82.77
64521;BME280;50896;46.714;17.322;2023-06-22T17:21:23;100295.63;;;30.49;81.52
64521;BME280;50896;46.714;17.322;2023-06-22T17:23:50;100288.81;;;30.47;81.66
64521;BME280;50896;46.714;17.322;2023-06-22T17:26:17;100287.69;;;30.48;82.46
64521;BME280;50896;46.714;17.322;2023-06-22T17:28:47;100282.50;;;30.46;83.04
64521;BME280;50896;46.714;17.322;2023-06-22T17:31:14;100277.81;;;30.47;81.82
64521;BME280;50896;46.714;17.322;2023-06-22T17:33:41;100277.88;;;30.42;82.06
64521;BME280;50896;46.714;17.322;2023-06-22T17:36:12;100276.53;;;30.39;81.82
64521;BME280;50896;46.714;17.322;2023-06-22T17:38:42;100270.56;;;30.37;81.40
64521;BME280;50896;46.714;17.322;2023-06-22T17:41:09;100267.88;;;30.32;81.55
64521;BME280;50896;46.714;17.322;2023-06-22T17:43:57;100272.03;;;30.29;82.83
64521;BME280;50896;46.714;17.322;2023-06-22T17:46:24;100269.09;;;30.26;86.55
64521;BME280;50896;46.714;17.322;2023-06-22T17:48:52;100273.00;;;30.20;89.47
64521;BME280;50896;46.714;17.322;2023-06-22T17:51:19;100272.28;;;30.14;92.94
64521;BME280;50896;46.714;17.322;2023-06-22T17:53:47;100266.88;;;30.09;95.56
64521;BME280;50896;46.714;17.322;2023-06-22T17:56:17;100273.03;;;30.00;97.21
64521;BME280;50896;46.714;17.322;2023-06-22T17:58:54;100266.81;;;29.95;99.27
64521;BME280;50896;46.714;17.322;2023-06-22T18:01:35;100280.88;;;29.88;99.65
64521;BME280;50896;46.714;17.322;2023-06-22T18:04:13;100275.72;;;29.81;100.00
64521;BME280;50896;46.714;17.322;2023-06-22T18:06:45;100271.94;;;29.77;100.00
64521;BME280;50896;46.714;17.322;2023-06-22T18:09:14;100267.34;;;29.73;100.00
64521;BME280;50896;46.714;17.322;2023-06-22T18:11:45;100265.28;;;29.64;100.00
64521;BME280;50896;46.714;17.322;2023-06-22T18:14:21;100270.81;;;29.59;100.00
64521;BME280;50896;46.714;17.322;2023-06-22T18:16:49;100267.03;;;29.55;100.00
64521;BME280;50896;46.714;17.322;2023-06-22T18:19:18;100273.97;;;29.47;100.00
64521;BME280;50896;46.714;17.322;2023-06-22T18:21:46;100270.50;;;29.42;100.00
64521;BME280;50896;46.714;17.322;2023-06-22T18:24:17;100279.84;;;29.36;100.00
64521;BME280;50896;46.714;17.322;2023-06-22T18:26:45;100279.94;;;29.30;100.00
64521;BME280;50896;46.714;17.322;2023-06-22T18:29:12;100279.16;;;29.25;100.00
64521;BME280;50896;46.714;17.322;2023-06-22T18:31:39;100283.84;;;29.19;100.00
64521;BME280;50896;46.714;17.322;2023-06-22T18:34:09;100286.41;;;29.10;100.00
64521;BME280;50896;46.714;17.322;2023-06-22T18:36:45;100288.16;;;29.01;100.00
64521;BME280;50896;46.714;17.322;2023-06-22T18:39:13;100294.75;;;28.95;100.00
64521;BME280;50896;46.714;17.322;2023-06-22T18:41:42;100300.00;;;28.91;100.00
64521;BME280;50896;46.714;17.322;2023-06-22T18:44:24;100304.44;;;28.87;100.00
64521;BME280;50896;46.714;17.322;2023-06-22T18:46:56;100308.00;;;28.83;100.00
64521;BME280;50896;46.714;17.322;2023-06-22T18:49:25;100317.56;;;28.85;100.00
64521;BME280;50896;46.714;17.322;2023-06-22T18:57:33;100304.88;;;28.65;100.00
64521;BME280;50896;46.714;17.322;2023-06-22T19:00:00;100315.84;;;28.60;100.00
64521;BME280;50896;46.714;17.322;2023-06-22T19:02:46;100305.75;;;28.55;100.00
64521;BME280;50896;46.714;17.322;2023-06-22T19:05:36;100303.63;;;28.47;100.00
64521;BME280;50896;46.714;17.322;2023-06-22T19:08:05;100305.03;;;28.39;100.00
64521;BME280;50896;46.714;17.322;2023-06-22T19:10:42;100320.16;;;28.32;100.00
64521;BME280;50896;46.714;17.322;2023-06-22T19:15:40;100319.09;;;28.22;100.00
64521;BME280;50896;46.714;17.322;2023-06-22T19:18:24;100319.69;;;28.14;100.00
64521;BME280;50896;46.714;17.322;2023-06-22T19:21:11;100318.63;;;28.10;100.00
64521;BME280;50896;46.714;17.322;2023-06-22T19:23:42;100323.00;;;28.06;100.00
64521;BME280;50896;46.714;17.322;2023-06-22T19:26:12;100319.22;;;28.02;100.00
64521;BME280;50896;46.714;17.322;2023-06-22T19:28:55;100326.88;;;28.00;100.00
64521;BME280;50896;46.714;17.322;2023-06-22T19:31:26;100339.16;;;27.92;100.00
64521;BME280;50896;46.714;17.322;2023-06-22T19:34:02;100341.69;;;27.83;100.00
64521;BME280;50896;46.714;17.322;2023-06-22T19:36:32;100335.69;;;27.76;100.00
64521;BME280;50896;46.714;17.322;2023-06-22T19:39:01;100341.97;;;27.71;100.00
64521;BME280;50896;46.714;17.322;2023-06-22T19:41:28;100331.91;;;27.67;100.00
64521;BME280;50896;46.714;17.322;2023-06-22T19:43:56;100329.47;;;27.60;100.00
64521;BME280;50896;46.714;17.322;2023-06-22T19:46:27;100331.69;;;27.53;100.00
64521;BME280;50896;46.714;17.322;2023-06-22T19:48:56;100325.66;;;27.56;100.00
64521;BME280;50896;46.714;17.322;2023-06-22T19:51:23;100323.78;;;27.51;100.00
64521;BME280;50896;46.714;17.322;2023-06-22T19:53:50;100316.41;;;27.47;100.00
64521;BME280;50896;46.714;17.322;2023-06-22T19:56:20;100311.53;;;27.43;100.00
64521;BME280;50896;46.714;17.322;2023-06-22T19:58:49;100298.16;;;27.37;100.00
64521;BME280;50896;46.714;17.322;2023-06-22T20:01:16;100296.25;;;27.37;100.00
64521;BME280;50896;46.714;17.322;2023-06-22T20:03:43;100300.88;;;27.32;100.00
64521;BME280;50896;46.714;17.322;2023-06-22T20:06:15;100301.94;;;27.31;100.00
64521;BME280;50896;46.714;17.322;2023-06-22T20:08:49;100298.94;;;27.32;100.00
64521;BME280;50896;46.714;17.322;2023-06-22T20:11:24;100298.97;;;27.37;100.00
64521;BME280;50896;46.714;17.322;2023-06-22T20:13:52;100288.59;;;27.34;100.00
64521;BME280;50896;46.714;17.322;2023-06-22T20:16:21;100283.41;;;27.33;100.00
64521;BME280;50896;46.714;17.322;2023-06-22T20:19:10;100286.94;;;27.28;100.00
64521;BME280;50896;46.714;17.322;2023-06-22T20:21:39;100288.88;;;27.27;100.00
64521;BME280;50896;46.714;17.322;2023-06-22T20:24:08;100300.91;;;27.21;100.00
64521;BME280;50896;46.714;17.322;2023-06-22T20:26:43;100297.63;;;27.24;100.00
64521;BME280;50896;46.714;17.322;2023-06-22T20:29:23;100297.63;;;27.29;100.00
64521;BME280;50896;46.714;17.322;2023-06-22T20:32:13;100291.31;;;27.29;100.00
64521;BME280;50896;46.714;17.322;2023-06-22T20:34:42;100299.25;;;27.25;100.00
64521;BME280;50896;46.714;17.322;2023-06-22T20:37:13;100290.50;;;27.23;100.00
64521;BME280;50896;46.714;17.322;2023-06-22T20:39:41;100297.34;;;27.26;100.00
64521;BME280;50896;46.714;17.322;2023-06-22T20:42:13;100290.25;;;27.25;100.00
64521;BME280;50896;46.714;17.322;2023-06-22T20:44:41;100296.81;;;27.24;100.00
64521;BME280;50896;46.714;17.322;2023-06-22T20:47:07;100296.53;;;27.20;100.00
64521;BME280;50896;46.714;17.322;2023-06-22T20:49:36;100303.34;;;27.18;100.00
64521;BME280;50896;46.714;17.322;2023-06-22T20:52:04;100300.34;;;27.19;100.00
64521;BME280;50896;46.714;17.322;2023-06-22T20:54:33;100294.09;;;27.19;100.00
64521;BME280;50896;46.714;17.322;2023-06-22T20:57:00;100299.25;;;27.20;100.00
64521;BME280;50896;46.714;17.322;2023-06-22T20:59:27;100303.06;;;27.29;100.00
64521;BME280;50896;46.714;17.322;2023-06-22T21:01:56;100298.16;;;27.37;100.00
64521;BME280;50896;46.714;17.322;2023-06-22T21:04:23;100301.44;;;27.34;100.00
64521;BME280;50896;46.714;17.322;2023-06-22T21:06:51;100301.94;;;27.31;100.00
64521;BME280;50896;46.714;17.322;2023-06-22T21:09:18;100302.00;;;27.20;100.00
64521;BME280;50896;46.714;17.322;2023-06-22T21:11:45;100300.34;;;27.19;100.00
64521;BME280;50896;46.714;17.322;2023-06-22T21:14:12;100299.53;;;27.14;100.00
64521;BME280;50896;46.714;17.322;2023-06-22T21:16:45;100298.22;;;27.06;100.00
64521;BME280;50896;46.714;17.322;2023-06-22T21:19:12;100288.38;;;27.05;100.00
64521;BME280;50896;46.714;17.322;2023-06-22T21:21:39;100284.81;;;27.04;100.00
64521;BME280;50896;46.714;17.322;2023-06-22T21:24:06;100291.13;;;27.05;100.00
64521;BME280;50896;46.714;17.322;2023-06-22T21:26:33;100287.53;;;27.04;100.00
64521;BME280;50896;46.714;17.322;2023-06-22T21:29:00;100288.66;;;27.03;100.00
64521;BME280;50896;46.714;17.322;2023-06-22T21:31:27;100287.03;;;27.02;100.00
64521;BME280;50896;46.714;17.322;2023-06-22T21:33:54;100283.47;;;26.97;100.00
64521;BME280;50896;46.714;17.322;2023-06-22T21:36:21;100282.69;;;26.91;100.00
64521;BME280;50896;46.714;17.322;2023-06-22T21:38:48;100279.94;;;26.86;100.00
64521;BME280;50896;46.714;17.322;2023-06-22T21:41:17;100282.41;;;26.77;100.00
64521;BME280;50896;46.714;17.322;2023-06-22T21:43:44;100275.59;;;26.69;100.00
64521;BME280;50896;46.714;17.322;2023-06-22T21:46:11;100285.94;;;26.62;100.00
64521;BME280;50896;46.714;17.322;2023-06-22T21:48:38;100286.47;;;26.59;100.00
64521;BME280;50896;46.714;17.322;2023-06-22T21:51:06;100277.78;;;26.57;100.00
64521;BME280;50896;46.714;17.322;2023-06-22T21:53:33;100272.56;;;26.55;100.00
64521;BME280;50896;46.714;17.322;2023-06-22T21:56:00;100277.75;;;26.62;100.00
64521;BME280;50896;46.714;17.322;2023-06-22T21:58:26;100271.22;;;26.63;100.00
64521;BME280;50896;46.714;17.322;2023-06-22T22:00:55;100270.41;;;26.63;100.00
64521;BME280;50896;46.714;17.322;2023-06-22T22:03:23;100277.75;;;26.62;100.00
64521;BME280;50896;46.714;17.322;2023-06-22T22:05:53;100265.75;;;26.63;100.00
64521;BME280;50896;46.714;17.322;2023-06-22T22:08:20;100255.94;;;26.62;100.00
64521;BME280;50896;46.714;17.322;2023-06-22T22:10:47;100249.41;;;26.63;100.00
64521;BME280;50896;46.714;17.322;2023-06-22T22:13:14;100250.75;;;26.60;100.00
64521;BME280;50896;46.714;17.322;2023-06-22T22:15:42;100251.31;;;26.57;100.00
64521;BME280;50896;46.714;17.322;2023-06-22T22:18:10;100250.75;;;26.55;100.00
64521;BME280;50896;46.714;17.322;2023-06-22T22:20:37;100241.78;;;26.55;100.00
64521;BME280;50896;46.714;17.322;2023-06-22T22:23:04;100245.31;;;26.50;100.00
64521;BME280;50896;46.714;17.322;2023-06-22T22:25:31;100238.50;;;26.48;100.00
64521;BME280;50896;46.714;17.322;2023-06-22T22:27:58;100250.78;;;26.45;100.00
64521;BME280;50896;46.714;17.322;2023-06-22T22:30:25;100233.31;;;26.41;100.00
64521;BME280;50896;46.714;17.322;2023-06-22T22:32:52;100229.78;;;26.40;100.00
64521;BME280;50896;46.714;17.322;2023-06-22T22:35:19;100220.50;;;26.41;100.00
64521;BME280;50896;46.714;17.322;2023-06-22T22:37:45;100211.00;;;26.39;100.00
64521;BME280;50896;46.714;17.322;2023-06-22T22:40:12;100202.25;;;26.37;100.00
64521;BME280;50896;46.714;17.322;2023-06-22T22:42:39;100198.16;;;26.34;100.00
64521;BME280;50896;46.714;17.322;2023-06-22T22:45:06;100190.53;;;26.31;100.00
64521;BME280;50896;46.714;17.322;2023-06-22T22:47:34;100193.81;;;26.28;100.00
64521;BME280;50896;46.714;17.322;2023-06-22T22:50:00;100190.81;;;26.30;100.00
64521;BME280;50896;46.714;17.322;2023-06-22T22:52:28;100181.56;;;26.31;100.00
64521;BME280;50896;46.714;17.322;2023-06-22T22:54:56;100179.38;;;26.27;100.00
64521;BME280;50896;46.714;17.322;2023-06-22T22:57:23;100174.19;;;26.26;100.00
64521;BME280;50896;46.714;17.322;2023-06-22T22:59:50;100175.84;;;26.27;100.00
64521;BME280;50896;46.714;17.322;2023-06-22T23:02:17;100163.03;;;26.22;100.00
64521;BME280;50896;46.714;17.322;2023-06-22T23:04:44;100160.88;;;26.19;100.00
64521;BME280;50896;46.714;17.322;2023-06-22T23:07:11;100161.38;;;26.16;100.00
64521;BME280;50896;46.714;17.322;2023-06-22T23:09:37;100148.88;;;26.10;100.00
64521;BME280;50896;46.714;17.322;2023-06-22T23:12:05;100157.03;;;26.05;100.00
64521;BME280;50896;46.714;17.322;2023-06-22T23:14:32;100153.78;;;26.03;100.00
64521;BME280;50896;46.714;17.322;2023-06-22T23:16:59;100154.53;;;25.98;100.00
64521;BME280;50896;46.714;17.322;2023-06-22T23:19:26;100153.75;;;25.98;100.00
64521;BME280;50896;46.714;17.322;2023-06-22T23:21:53;100144.75;;;25.97;100.00
64521;BME280;50896;46.714;17.322;2023-06-22T23:24:19;100140.94;;;25.98;100.00
64521;BME280;50896;46.714;17.322;2023-06-22T23:26:46;100134.72;;;26.03;100.00
64521;BME280;50896;46.714;17.322;2023-06-22T23:29:14;100139.03;;;25.99;100.00
64521;BME280;50896;46.714;17.322;2023-06-22T23:31:42;100131.94;;;25.98;100.00
64521;BME280;50896;46.714;17.322;2023-06-22T23:34:09;100127.06;;;25.95;100.00
64521;BME280;50896;46.714;17.322;2023-06-22T23:36:37;100124.88;;;25.97;100.00
64521;BME280;50896;46.714;17.322;2023-06-22T23:39:04;100129.50;;;25.91;100.00
64521;BME280;50896;46.714;17.322;2023-06-22T23:41:33;100136.03;;;25.90;100.00
64521;BME280;50896;46.714;17.322;2023-06-22T23:44:00;100130.84;;;25.88;100.00
64521;BME280;50896;46.714;17.322;2023-06-22T23:46:27;100128.69;;;25.90;100.00
64521;BME280;50896;46.714;17.322;2023-06-22T23:48:57;100122.44;;;25.90;100.00
64521;BME280;50896;46.714;17.322;2023-06-22T23:51:24;100123.50;;;25.89;100.00
64521;BME280;50896;46.714;17.322;2023-06-22T23:53:55;100129.50;;;25.86;100.00
64521;BME280;50896;46.714;17.322;2023-06-22T23:56:23;100134.69;;;25.87;100.00
64521;BME280;50896;46.714;17.322;2023-06-22T23:58:50;100127.31;;;25.83;100.00
